Airfield :
LOGIN :

Register | Disclaimer

   EN    FR    IT 

 










Legend :    VFR   Marginal VFR   IFR   Intensive IFR   Very Intensive IFR
Visi :
Ceiling :
>= 8 km
>= 3000ft
5 to 8 km
1000 to 3000 ft
1500m to 5 km
500 to 1000 ft
800 to 1500m
200 to 500 ft
< 800m
< 200 ft
Symbols :   Thunderstorms  Fog  Heavy snow  Heavy precipitations  Wind > 20 kt
SIGMETs :     Misc.  Thunderstorms  Icing  Turbulence  Mountain Waves  Volcanic Ashes







- Airport Elevation : 33 ft
- IATA code : MHZ


EGUN - RAF Mildenhall

CURRENT METAR :
  • 180656Z AUTO 30033G49KT 9999 OVC027 06/03 A2929 RMK AO2 PK WND 28057/0558 PRESRR SLP922 T00580030 .

EXPIRED METARs :
  • 180643Z AUTO 30040G53KT 9999 SQ OVC030 06/03 A2926 RMK AO2 PRESRR SLP912 $
  • 180618Z AUTO 29039G47KT 9999 BKN033 07/04 A2920 RMK AO2 PRESRR SLP892 $
  • 180603Z AUTO 28048G56KT 9999 SQ SCT035 07/03 A2914 RMK AO2 SLP871 $
  • 180534Z AUTO 27049G64KT 9999 SQ CLR 09/03 A2909 RMK AO2 RAB28E32 SLP854 $
  • 180532Z AUTO 27046G63KT 9999 SQ CLR 09/04 A2909 RMK AO2 RAB28E32 SLP854 $
  • 180523Z AUTO 27044G54KT 9999 SQ FEW045 09/04 A2907 RMK AO2 SLP847 $
  • 180511Z AUTO 26033G51KT 9999 SCT045 BKN050 09/04 A2907 RMK AO2 SLP847 $
  • 180501Z AUTO 26035G47KT 9999 BKN048 10/05 A2907 RMK AO2 SLP847 $
  • 180451Z AUTO 27034G43KT 9999 BKN049 10/05 A2908 RMK AO2 SLP851 $
  • 180441Z AUTO 27033G44KT 9999 SCT050 10/05 A2907 RMK AO2 SLP847 $

TAF AMD TAF EGUN
Valid from the 18 at 06:00 until the 19 at 10:00 UTC


180627Z 1806/1910 27035G50KT 9999 BKN025 530003 QNH2905INS
TEMPO 1806/1808 27025G35KT 510003
BECMG 1807/1808 27025G35KT 9999 BKN025 510003 QNH2910INS
BECMG 1809/1810 28015G25KT 9999 BKN020 QNH2938INS
BECMG 1816/1817 25012G25KT 8000 -SHRA SCT015 BKN020 QNH2953INS
BECMG 1903/1904 26012G20KT 9999 NSW SCT020 QNH2968INS TX11/1806Z TN00/1904Z
No reported NOTAMs for that airfield.
1 SIGMET reported for the London FIR (EGTT) :
 
Severe turbulence
EGTT SIGMET 04 VALID 180640/181030 EGRR
EGTT LONDON FIR SEV TURB FCST E OF LINE N4955 W00225 - N5500 W00311 SFC/FL060 MOV E 45KT INTSF=



MET'MAP, your aeronautical weather chart ! - Copyright ORBIFLY December 2007 - Disclaimer

ORBIFLY MET'MAP TEAM :

Programming & Development : Alexandra Zaïnal
Concept & Development : Baudouin d'Aumeries
Co-Development & Prog : Marc-Olivier Méhu
Technical & hardware support : Manuel Goepfert

Contact : metmap@orbifly.com




SOURCES & CREDITS :

   NOAA